createdAt,value
2023-01-20T00:03:36.864Z,-0.20
2023-01-20T00:08:39.587Z,-0.20
2023-01-20T00:13:41.364Z,-0.30
2023-01-20T00:18:43.089Z,-0.30
2023-01-20T00:23:46.295Z,-0.20
2023-01-20T00:28:48.997Z,-0.20
2023-01-20T00:33:52.532Z,-0.30
2023-01-20T00:38:54.439Z,-0.30
2023-01-20T00:43:56.216Z,-0.30
2023-01-20T00:48:57.975Z,-0.30
2023-01-20T00:53:59.811Z,-0.30
2023-01-20T00:59:01.567Z,-0.30
2023-01-20T01:04:03.544Z,-0.30
2023-01-20T01:09:05.695Z,-0.30
2023-01-20T01:14:07.470Z,-0.30
2023-01-20T01:19:09.171Z,-0.30
2023-01-20T01:24:11.345Z,-0.30
2023-01-20T01:29:13.218Z,-0.30
2023-01-20T01:34:15.563Z,-0.40
2023-01-20T01:39:17.291Z,-0.40
2023-01-20T01:44:20.791Z,-0.40
2023-01-20T01:49:23.955Z,-0.50
2023-01-20T01:54:31.800Z,-0.50
2023-01-20T01:59:34.351Z,-0.60
2023-01-20T02:04:38.610Z,-0.70
2023-01-20T02:09:40.349Z,-0.80
2023-01-20T02:14:54.316Z,-0.80
2023-01-20T02:20:34.677Z,-0.90
2023-01-20T02:26:08.854Z,-0.90
2023-01-20T02:31:52.401Z,-0.90
2023-01-20T02:37:05.768Z,-0.90
2023-01-20T02:42:32.064Z,-0.90
2023-01-20T02:48:03.251Z,-0.80
2023-01-20T02:53:06.711Z,-0.90
2023-01-20T02:58:23.178Z,-0.90
2023-01-20T03:03:32.619Z,-0.90
2023-01-20T03:08:36.820Z,-0.80
2023-01-20T03:13:55.217Z,-0.70
2023-01-20T03:18:56.907Z,-0.70
2023-01-20T03:24:02.033Z,-0.70
2023-01-20T03:29:07.838Z,-0.60
2023-01-20T03:34:16.986Z,-0.60
2023-01-20T03:39:19.610Z,-0.50
2023-01-20T03:44:56.661Z,-0.50
2023-01-20T03:50:17.225Z,-0.50
2023-01-20T03:55:36.773Z,-0.40
2023-01-20T04:00:43.376Z,-0.40
2023-01-20T04:05:47.882Z,-0.50
2023-01-20T04:10:50.905Z,-0.40
2023-01-20T04:15:52.850Z,-0.40
2023-01-20T04:21:04.276Z,-0.30
2023-01-20T04:26:06.481Z,-0.20
2023-01-20T04:31:18.170Z,-0.20
2023-01-20T04:36:26.646Z,-0.20
2023-01-20T04:41:28.413Z,-0.20
2023-01-20T04:46:30.219Z,-0.30
2023-01-20T04:51:35.288Z,-0.50
2023-01-20T04:56:37.022Z,-0.60
2023-01-20T05:01:38.821Z,-0.80
2023-01-20T05:06:45.145Z,-0.70
2023-01-20T05:11:48.264Z,-0.80
2023-01-20T05:16:50.000Z,-0.80
2023-01-20T05:21:51.855Z,-0.90
2023-01-20T05:26:53.583Z,-0.90
2023-01-20T05:31:55.686Z,-0.90
2023-01-20T05:36:57.654Z,-0.80
2023-01-20T05:42:00.653Z,-0.80
2023-01-20T05:47:02.817Z,-0.70
2023-01-20T05:52:04.799Z,-0.60
2023-01-20T05:57:06.601Z,-0.50
2023-01-20T06:02:08.428Z,-0.40
2023-01-20T06:07:10.169Z,-0.30
2023-01-20T06:12:11.971Z,-0.20
2023-01-20T06:17:13.783Z,-0.10
2023-01-20T06:22:15.926Z,-0.10
2023-01-20T06:27:32.695Z,0.00
2023-01-20T06:32:34.478Z,0.00
2023-01-20T06:37:36.211Z,0.00
2023-01-20T06:42:38.132Z,0.00
2023-01-20T06:47:39.874Z,0.00
2023-01-20T06:52:41.771Z,-0.10
2023-01-20T06:57:43.547Z,-0.10
2023-01-20T07:02:45.379Z,0.00
2023-01-20T07:07:47.155Z,0.00
2023-01-20T07:12:48.923Z,0.10
2023-01-20T07:17:50.667Z,0.10
2023-01-20T07:22:52.509Z,0.20
2023-01-20T07:27:54.356Z,0.10
2023-01-20T07:32:56.123Z,0.20
2023-01-20T07:37:58.065Z,0.20
2023-01-20T07:42:59.756Z,0.30
2023-01-20T07:48:03.766Z,0.30
2023-01-20T07:53:05.580Z,0.30
2023-01-20T07:58:07.386Z,0.30
2023-01-20T08:03:09.356Z,0.40
2023-01-20T08:08:11.144Z,0.50
2023-01-20T08:13:13.108Z,0.50
2023-01-20T08:18:14.835Z,0.60
2023-01-20T08:23:16.640Z,0.60
2023-01-20T08:28:18.518Z,0.70
2023-01-20T08:33:21.287Z,0.80
2023-01-20T08:38:23.186Z,0.90
2023-01-20T08:43:24.917Z,1.20
2023-01-20T08:48:26.940Z,1.70
2023-01-20T08:53:28.706Z,2.10
2023-01-20T08:58:30.785Z,2.50
2023-01-20T09:03:33.223Z,2.70
2023-01-20T09:08:35.296Z,3.20
2023-01-20T09:13:37.344Z,3.50
2023-01-20T09:18:39.224Z,4.70
2023-01-20T09:23:42.950Z,5.40
2023-01-20T09:28:45.871Z,6.50
2023-01-20T09:33:47.700Z,7.20
2023-01-20T09:39:07.917Z,7.30
2023-01-20T09:44:25.024Z,7.50
2023-01-20T09:49:59.607Z,7.50
2023-01-20T09:55:12.530Z,7.20
2023-01-20T10:00:20.665Z,6.60
2023-01-20T10:05:32.890Z,7.10
2023-01-20T10:10:49.630Z,7.60
2023-01-20T10:15:55.037Z,8.10
2023-01-20T10:21:08.244Z,8.40
2023-01-20T10:26:16.668Z,7.20
2023-01-20T10:31:25.397Z,6.40
2023-01-20T10:36:29.263Z,5.50
2023-01-20T10:41:30.995Z,4.40
2023-01-20T10:47:02.643Z,4.30
2023-01-20T10:52:10.396Z,4.00
2023-01-20T10:57:15.394Z,3.90
2023-01-20T11:02:22.830Z,3.90
2023-01-20T11:07:25.817Z,3.80
2023-01-20T11:12:32.573Z,3.80
2023-01-20T11:17:34.339Z,3.90
2023-01-20T11:22:37.729Z,3.90
2023-01-20T11:27:44.636Z,3.60
2023-01-20T11:32:46.581Z,3.50
2023-01-20T11:37:48.666Z,3.60
2023-01-20T11:42:52.226Z,3.20
2023-01-20T11:48:05.954Z,3.10
2023-01-20T11:53:25.971Z,3.00
2023-01-20T11:58:32.616Z,2.90
2023-01-20T12:03:56.150Z,2.90
2023-01-20T12:09:03.916Z,2.70
2023-01-20T12:14:25.151Z,2.60
2023-01-20T12:19:40.838Z,2.50
2023-01-20T12:25:16.487Z,2.40
2023-01-20T12:30:47.448Z,2.50
2023-01-20T12:36:21.372Z,2.30
2023-01-20T12:42:02.588Z,2.30
2023-01-20T12:47:14.279Z,2.20
2023-01-20T12:52:31.879Z,2.20
2023-01-20T12:58:03.926Z,2.20
2023-01-20T13:03:33.031Z,2.10
2023-01-20T13:08:39.379Z,2.00
2023-01-20T13:13:57.862Z,2.00
2023-01-20T13:19:16.491Z,1.80
2023-01-20T13:24:20.413Z,1.80
2023-01-20T13:29:37.676Z,1.80
2023-01-20T13:34:42.456Z,1.70
2023-01-20T13:39:48.107Z,1.60
2023-01-20T13:45:20.152Z,1.50
2023-01-20T13:50:38.205Z,1.30
2023-01-20T13:55:45.791Z,1.20
2023-01-20T14:00:53.494Z,1.10
2023-01-20T14:05:56.658Z,1.00
2023-01-20T14:11:14.504Z,0.80
2023-01-20T14:16:36.500Z,0.70
2023-01-20T14:21:42.596Z,0.70
2023-01-20T14:26:44.361Z,0.70
2023-01-20T14:31:46.463Z,0.60
2023-01-20T14:36:48.556Z,0.50
2023-01-20T14:41:51.685Z,0.50
2023-01-20T14:46:56.461Z,0.70
2023-01-20T14:51:58.768Z,0.70
2023-01-20T14:57:12.429Z,0.70
2023-01-20T15:02:28.283Z,0.70
2023-01-20T15:07:30.558Z,0.70
2023-01-20T15:12:52.348Z,0.70
2023-01-20T15:18:19.588Z,0.70
2023-01-20T15:23:30.104Z,0.80
2023-01-20T15:28:31.906Z,0.80
2023-01-20T15:33:33.737Z,0.80
2023-01-20T15:38:35.473Z,0.80
2023-01-20T15:43:37.305Z,0.80
2023-01-20T15:48:39.448Z,0.70
2023-01-20T15:53:41.709Z,0.70
2023-01-20T15:58:43.533Z,0.70
2023-01-20T16:03:45.592Z,0.70
2023-01-20T16:08:49.615Z,0.60
2023-01-20T16:13:51.316Z,0.50
2023-01-20T16:18:53.571Z,0.40
2023-01-20T16:23:55.422Z,0.40
2023-01-20T16:28:58.228Z,0.40
2023-01-20T16:33:59.947Z,0.30
2023-01-20T16:39:01.776Z,0.20
2023-01-20T16:44:04.739Z,0.10
2023-01-20T16:49:06.667Z,-0.10
2023-01-20T16:54:09.730Z,-0.20
2023-01-20T16:59:11.521Z,-0.20
2023-01-20T17:04:13.248Z,-0.30
2023-01-20T17:09:15.080Z,-0.50
2023-01-20T17:14:16.789Z,-0.60
2023-01-20T17:19:18.942Z,-0.50
2023-01-20T17:24:20.798Z,-0.60
2023-01-20T17:29:23.017Z,-0.70
2023-01-20T17:34:24.795Z,-0.80
2023-01-20T17:39:26.733Z,-0.90
2023-01-20T17:44:28.405Z,-0.90
2023-01-20T17:49:30.139Z,-1.00
2023-01-20T17:54:31.884Z,-1.10
2023-01-20T17:59:33.560Z,-1.20
2023-01-20T18:04:35.367Z,-1.30
2023-01-20T18:09:37.333Z,-1.40
2023-01-20T18:14:39.061Z,-1.50
2023-01-20T18:19:41.552Z,-1.50
2023-01-20T18:24:43.319Z,-1.50
2023-01-20T18:29:45.321Z,-1.50
2023-01-20T18:34:47.120Z,-1.60
2023-01-20T18:39:48.863Z,-1.50
2023-01-20T18:44:50.717Z,-1.50
2023-01-20T18:49:52.431Z,-1.60
2023-01-20T18:54:54.477Z,-1.70
2023-01-20T18:59:56.244Z,-1.90
2023-01-20T19:04:58.708Z,-1.90
2023-01-20T19:10:00.677Z,-1.90
2023-01-20T19:15:02.411Z,-1.90
2023-01-20T19:20:04.814Z,-1.90
2023-01-20T19:25:07.289Z,-2.00
2023-01-20T19:30:10.243Z,-2.10
2023-01-20T19:35:11.972Z,-2.00
2023-01-20T19:40:16.454Z,-2.20
2023-01-20T19:45:19.015Z,-2.20
2023-01-20T19:50:20.881Z,-2.20
2023-01-20T19:55:22.634Z,-2.10
2023-01-20T20:00:24.417Z,-2.20
2023-01-20T20:05:26.258Z,-2.20
2023-01-20T20:10:28.053Z,-2.20
2023-01-20T20:15:29.954Z,-2.20
2023-01-20T20:20:33.075Z,-2.20
2023-01-20T20:25:37.381Z,-2.20
2023-01-20T20:30:42.145Z,-2.30
2023-01-20T20:35:43.915Z,-2.20
2023-01-20T20:40:46.077Z,-2.20
2023-01-20T20:45:47.908Z,-2.20
2023-01-20T20:50:49.862Z,-2.20
2023-01-20T20:55:55.291Z,-2.30
2023-01-20T21:00:57.818Z,-2.20
2023-01-20T21:05:59.771Z,-2.40
2023-01-20T21:11:07.514Z,-2.40
2023-01-20T21:16:14.441Z,-2.50
2023-01-20T21:21:19.555Z,-2.40
2023-01-20T21:26:22.486Z,-2.50
2023-01-20T21:31:26.749Z,-2.60
2023-01-20T21:36:29.638Z,-2.70
2023-01-20T21:41:31.366Z,-2.60
2023-01-20T21:46:40.429Z,-2.70
2023-01-20T21:52:00.898Z,-2.70
2023-01-20T21:57:03.002Z,-2.80
2023-01-20T22:02:05.494Z,-2.80
2023-01-20T22:07:07.783Z,-2.80
2023-01-20T22:12:10.475Z,-2.70
2023-01-20T22:17:13.071Z,-2.70
2023-01-20T22:22:15.368Z,-2.80
2023-01-20T22:27:17.238Z,-2.90
2023-01-20T22:32:18.947Z,-3.00
2023-01-20T22:37:20.659Z,-3.00
2023-01-20T22:42:22.387Z,-3.10
2023-01-20T22:47:24.076Z,-3.10
2023-01-20T22:52:25.848Z,-3.10
2023-01-20T22:57:30.063Z,-3.00
2023-01-20T23:02:32.113Z,-2.90
2023-01-20T23:07:35.213Z,-2.90
2023-01-20T23:12:37.008Z,-2.90
2023-01-20T23:17:38.728Z,-2.90
2023-01-20T23:22:40.496Z,-2.90
2023-01-20T23:27:42.387Z,-2.90
2023-01-20T23:32:44.870Z,-2.50
2023-01-20T23:37:47.101Z,-2.50
2023-01-20T23:42:48.901Z,-2.60
2023-01-20T23:47:51.547Z,-2.70
2023-01-20T23:52:53.339Z,-2.70
2023-01-20T23:57:56.074Z,-2.70
